sensor_id;sensor_type;location;lat;lon;timestamp;P1;durP1;ratioP1;P2;durP2;ratioP2
4756;SDS011;2392;52.578;13.426;2024-03-02T00:00:14;82.43;;;41.27;;
4756;SDS011;2392;52.578;13.426;2024-03-02T00:02:42;72.13;;;38.67;;
4756;SDS011;2392;52.578;13.426;2024-03-02T00:05:10;82.17;;;40.10;;
4756;SDS011;2392;52.578;13.426;2024-03-02T00:07:38;75.60;;;38.47;;
4756;SDS011;2392;52.578;13.426;2024-03-02T00:10:08;78.77;;;39.47;;
4756;SDS011;2392;52.578;13.426;2024-03-02T00:12:36;71.83;;;37.23;;
4756;SDS011;2392;52.578;13.426;2024-03-02T00:15:04;78.47;;;40.37;;
4756;SDS011;2392;52.578;13.426;2024-03-02T00:17:32;80.30;;;39.20;;
4756;SDS011;2392;52.578;13.426;2024-03-02T00:20:00;83.83;;;40.50;;
4756;SDS011;2392;52.578;13.426;2024-03-02T00:22:30;76.47;;;38.73;;
4756;SDS011;2392;52.578;13.426;2024-03-02T00:24:56;78.97;;;40.83;;
4756;SDS011;2392;52.578;13.426;2024-03-02T00:27:24;79.73;;;38.57;;
4756;SDS011;2392;52.578;13.426;2024-03-02T00:29:51;73.83;;;40.07;;
4756;SDS011;2392;52.578;13.426;2024-03-02T00:32:17;73.40;;;38.07;;
4756;SDS011;2392;52.578;13.426;2024-03-02T00:34:44;76.33;;;40.13;;
4756;SDS011;2392;52.578;13.426;2024-03-02T00:37:12;76.60;;;39.83;;
4756;SDS011;2392;52.578;13.426;2024-03-02T00:39:39;75.70;;;39.67;;
4756;SDS011;2392;52.578;13.426;2024-03-02T00:42:06;86.40;;;40.90;;
4756;SDS011;2392;52.578;13.426;2024-03-02T00:44:33;93.83;;;45.47;;
4756;SDS011;2392;52.578;13.426;2024-03-02T00:47:00;86.27;;;42.43;;
4756;SDS011;2392;52.578;13.426;2024-03-02T00:49:28;87.77;;;41.03;;
4756;SDS011;2392;52.578;13.426;2024-03-02T00:51:55;82.43;;;43.63;;
4756;SDS011;2392;52.578;13.426;2024-03-02T00:54:23;69.73;;;39.50;;
4756;SDS011;2392;52.578;13.426;2024-03-02T00:56:53;83.50;;;43.50;;
4756;SDS011;2392;52.578;13.426;2024-03-02T00:59:21;73.47;;;39.83;;
4756;SDS011;2392;52.578;13.426;2024-03-02T01:01:48;67.33;;;37.10;;
4756;SDS011;2392;52.578;13.426;2024-03-02T01:04:15;78.77;;;39.80;;
4756;SDS011;2392;52.578;13.426;2024-03-02T01:06:42;79.37;;;41.80;;
4756;SDS011;2392;52.578;13.426;2024-03-02T01:09:08;73.87;;;37.93;;
4756;SDS011;2392;52.578;13.426;2024-03-02T01:11:38;76.93;;;39.73;;
4756;SDS011;2392;52.578;13.426;2024-03-02T01:14:04;82.43;;;40.63;;
4756;SDS011;2392;52.578;13.426;2024-03-02T01:16:31;81.10;;;42.07;;
4756;SDS011;2392;52.578;13.426;2024-03-02T01:18:57;85.27;;;43.00;;
4756;SDS011;2392;52.578;13.426;2024-03-02T01:21:24;82.30;;;41.33;;
4756;SDS011;2392;52.578;13.426;2024-03-02T01:23:51;81.27;;;44.13;;
4756;SDS011;2392;52.578;13.426;2024-03-02T01:26:17;75.43;;;41.47;;
4756;SDS011;2392;52.578;13.426;2024-03-02T01:28:45;75.53;;;39.70;;
4756;SDS011;2392;52.578;13.426;2024-03-02T01:31:12;77.90;;;41.60;;
4756;SDS011;2392;52.578;13.426;2024-03-02T01:33:39;83.00;;;42.73;;
4756;SDS011;2392;52.578;13.426;2024-03-02T01:36:05;83.30;;;40.53;;
4756;SDS011;2392;52.578;13.426;2024-03-02T01:38:33;75.53;;;39.87;;
4756;SDS011;2392;52.578;13.426;2024-03-02T01:41:00;77.73;;;39.20;;
4756;SDS011;2392;52.578;13.426;2024-03-02T01:43:27;73.60;;;39.37;;
4756;SDS011;2392;52.578;13.426;2024-03-02T01:45:55;69.03;;;38.20;;
4756;SDS011;2392;52.578;13.426;2024-03-02T01:48:22;74.83;;;38.27;;
4756;SDS011;2392;52.578;13.426;2024-03-02T01:50:49;71.13;;;38.80;;
4756;SDS011;2392;52.578;13.426;2024-03-02T01:53:16;77.60;;;40.17;;
4756;SDS011;2392;52.578;13.426;2024-03-02T01:55:43;72.07;;;36.70;;
4756;SDS011;2392;52.578;13.426;2024-03-02T01:58:09;75.57;;;40.93;;
4756;SDS011;2392;52.578;13.426;2024-03-02T02:00:36;70.77;;;39.20;;
4756;SDS011;2392;52.578;13.426;2024-03-02T02:03:04;75.20;;;38.43;;
4756;SDS011;2392;52.578;13.426;2024-03-02T02:05:31;71.10;;;35.83;;
4756;SDS011;2392;52.578;13.426;2024-03-02T02:07:58;68.67;;;35.20;;
4756;SDS011;2392;52.578;13.426;2024-03-02T02:10:25;69.90;;;35.77;;
4756;SDS011;2392;52.578;13.426;2024-03-02T02:12:51;71.47;;;36.90;;
4756;SDS011;2392;52.578;13.426;2024-03-02T02:15:22;67.40;;;37.03;;
4756;SDS011;2392;52.578;13.426;2024-03-02T02:17:52;65.30;;;36.50;;
4756;SDS011;2392;52.578;13.426;2024-03-02T02:20:20;70.90;;;37.20;;
4756;SDS011;2392;52.578;13.426;2024-03-02T02:22:57;61.67;;;34.07;;
4756;SDS011;2392;52.578;13.426;2024-03-02T02:25:24;69.97;;;35.37;;
4756;SDS011;2392;52.578;13.426;2024-03-02T02:27:51;72.90;;;35.73;;
4756;SDS011;2392;52.578;13.426;2024-03-02T02:30:18;78.23;;;39.63;;
4756;SDS011;2392;52.578;13.426;2024-03-02T02:32:46;67.10;;;35.80;;
4756;SDS011;2392;52.578;13.426;2024-03-02T02:35:13;64.20;;;34.53;;
4756;SDS011;2392;52.578;13.426;2024-03-02T02:37:39;69.40;;;35.90;;
4756;SDS011;2392;52.578;13.426;2024-03-02T02:40:09;72.00;;;35.67;;
4756;SDS011;2392;52.578;13.426;2024-03-02T02:42:36;74.40;;;35.73;;
4756;SDS011;2392;52.578;13.426;2024-03-02T02:45:02;70.27;;;36.77;;
4756;SDS011;2392;52.578;13.426;2024-03-02T02:47:29;72.40;;;37.00;;
4756;SDS011;2392;52.578;13.426;2024-03-02T02:49:58;73.70;;;37.50;;
4756;SDS011;2392;52.578;13.426;2024-03-02T02:52:25;66.80;;;36.60;;
4756;SDS011;2392;52.578;13.426;2024-03-02T02:54:52;70.27;;;36.73;;
4756;SDS011;2392;52.578;13.426;2024-03-02T02:57:20;68.43;;;36.37;;
4756;SDS011;2392;52.578;13.426;2024-03-02T02:59:46;71.60;;;38.80;;
4756;SDS011;2392;52.578;13.426;2024-03-02T03:02:13;77.77;;;39.13;;
4756;SDS011;2392;52.578;13.426;2024-03-02T03:04:39;74.90;;;39.57;;
4756;SDS011;2392;52.578;13.426;2024-03-02T03:07:06;76.10;;;38.10;;
4756;SDS011;2392;52.578;13.426;2024-03-02T03:09:33;76.40;;;39.77;;
4756;SDS011;2392;52.578;13.426;2024-03-02T03:12:03;69.73;;;37.27;;
4756;SDS011;2392;52.578;13.426;2024-03-02T03:14:32;66.83;;;35.97;;
4756;SDS011;2392;52.578;13.426;2024-03-02T03:16:58;77.03;;;40.20;;
4756;SDS011;2392;52.578;13.426;2024-03-02T03:19:26;68.83;;;37.50;;
4756;SDS011;2392;52.578;13.426;2024-03-02T03:21:52;74.83;;;38.10;;
4756;SDS011;2392;52.578;13.426;2024-03-02T03:24:19;68.90;;;37.90;;
4756;SDS011;2392;52.578;13.426;2024-03-02T03:26:46;71.60;;;38.93;;
4756;SDS011;2392;52.578;13.426;2024-03-02T03:29:12;75.17;;;37.53;;
4756;SDS011;2392;52.578;13.426;2024-03-02T03:31:40;69.30;;;36.37;;
4756;SDS011;2392;52.578;13.426;2024-03-02T03:34:07;71.17;;;38.20;;
4756;SDS011;2392;52.578;13.426;2024-03-02T03:36:33;68.73;;;36.37;;
4756;SDS011;2392;52.578;13.426;2024-03-02T03:39:00;70.87;;;37.37;;
4756;SDS011;2392;52.578;13.426;2024-03-02T03:41:28;71.10;;;36.60;;
4756;SDS011;2392;52.578;13.426;2024-03-02T03:43:55;69.37;;;36.50;;
4756;SDS011;2392;52.578;13.426;2024-03-02T03:46:21;67.63;;;37.27;;
4756;SDS011;2392;52.578;13.426;2024-03-02T03:48:49;68.13;;;35.43;;
4756;SDS011;2392;52.578;13.426;2024-03-02T03:51:16;73.00;;;37.63;;
4756;SDS011;2392;52.578;13.426;2024-03-02T03:53:42;66.43;;;35.40;;
4756;SDS011;2392;52.578;13.426;2024-03-02T03:56:09;63.40;;;33.70;;
4756;SDS011;2392;52.578;13.426;2024-03-02T03:58:36;62.90;;;34.13;;
4756;SDS011;2392;52.578;13.426;2024-03-02T04:01:02;68.77;;;35.53;;
4756;SDS011;2392;52.578;13.426;2024-03-02T04:03:29;69.60;;;35.43;;
4756;SDS011;2392;52.578;13.426;2024-03-02T04:05:57;63.27;;;34.60;;
4756;SDS011;2392;52.578;13.426;2024-03-02T04:08:24;62.23;;;34.00;;
4756;SDS011;2392;52.578;13.426;2024-03-02T04:10:51;63.33;;;32.60;;
4756;SDS011;2392;52.578;13.426;2024-03-02T04:13:17;61.07;;;32.07;;
4756;SDS011;2392;52.578;13.426;2024-03-02T04:15:44;64.97;;;33.87;;
4756;SDS011;2392;52.578;13.426;2024-03-02T04:18:11;64.63;;;34.40;;
4756;SDS011;2392;52.578;13.426;2024-03-02T04:20:37;74.13;;;35.20;;
4756;SDS011;2392;52.578;13.426;2024-03-02T04:23:05;60.10;;;33.63;;
4756;SDS011;2392;52.578;13.426;2024-03-02T04:25:32;61.50;;;32.40;;
4756;SDS011;2392;52.578;13.426;2024-03-02T04:27:59;60.57;;;31.60;;
4756;SDS011;2392;52.578;13.426;2024-03-02T04:30:26;59.20;;;31.97;;
4756;SDS011;2392;52.578;13.426;2024-03-02T04:32:53;59.83;;;32.13;;
4756;SDS011;2392;52.578;13.426;2024-03-02T04:35:19;57.73;;;31.77;;
4756;SDS011;2392;52.578;13.426;2024-03-02T04:37:46;60.70;;;31.87;;
4756;SDS011;2392;52.578;13.426;2024-03-02T04:40:14;63.17;;;33.27;;
4756;SDS011;2392;52.578;13.426;2024-03-02T04:42:41;60.80;;;31.90;;
4756;SDS011;2392;52.578;13.426;2024-03-02T04:45:08;60.20;;;31.83;;
4756;SDS011;2392;52.578;13.426;2024-03-02T04:47:35;61.83;;;32.90;;
4756;SDS011;2392;52.578;13.426;2024-03-02T04:50:02;61.70;;;31.27;;
4756;SDS011;2392;52.578;13.426;2024-03-02T04:52:28;68.33;;;31.83;;
4756;SDS011;2392;52.578;13.426;2024-03-02T04:54:55;58.70;;;31.17;;
4756;SDS011;2392;52.578;13.426;2024-03-02T04:57:56;59.80;;;30.73;;
4756;SDS011;2392;52.578;13.426;2024-03-02T05:00:22;61.97;;;31.33;;
4756;SDS011;2392;52.578;13.426;2024-03-02T05:02:49;61.03;;;30.43;;
4756;SDS011;2392;52.578;13.426;2024-03-02T05:05:16;55.70;;;31.37;;
4756;SDS011;2392;52.578;13.426;2024-03-02T05:07:42;59.40;;;31.00;;
4756;SDS011;2392;52.578;13.426;2024-03-02T05:10:09;57.17;;;31.60;;
4756;SDS011;2392;52.578;13.426;2024-03-02T05:12:37;58.20;;;30.37;;
4756;SDS011;2392;52.578;13.426;2024-03-02T05:15:22;59.53;;;30.13;;
4756;SDS011;2392;52.578;13.426;2024-03-02T05:17:49;59.43;;;32.30;;
4756;SDS011;2392;52.578;13.426;2024-03-02T05:20:16;62.90;;;33.23;;
4756;SDS011;2392;52.578;13.426;2024-03-02T05:22:43;58.27;;;31.90;;
4756;SDS011;2392;52.578;13.426;2024-03-02T05:25:10;58.10;;;31.80;;
4756;SDS011;2392;52.578;13.426;2024-03-02T05:27:37;58.63;;;30.60;;
4756;SDS011;2392;52.578;13.426;2024-03-02T05:30:04;64.67;;;32.93;;
4756;SDS011;2392;52.578;13.426;2024-03-02T05:32:33;58.20;;;32.20;;
4756;SDS011;2392;52.578;13.426;2024-03-02T05:35:00;59.23;;;32.53;;
4756;SDS011;2392;52.578;13.426;2024-03-02T05:37:28;63.17;;;32.47;;
4756;SDS011;2392;52.578;13.426;2024-03-02T05:39:54;64.67;;;34.07;;
4756;SDS011;2392;52.578;13.426;2024-03-02T05:42:21;62.07;;;33.10;;
4756;SDS011;2392;52.578;13.426;2024-03-02T05:44:48;58.07;;;31.27;;
4756;SDS011;2392;52.578;13.426;2024-03-02T05:47:14;67.60;;;32.03;;
4756;SDS011;2392;52.578;13.426;2024-03-02T05:49:42;61.90;;;33.07;;
4756;SDS011;2392;52.578;13.426;2024-03-02T05:52:09;63.10;;;31.67;;
4756;SDS011;2392;52.578;13.426;2024-03-02T05:54:36;70.93;;;35.23;;
4756;SDS011;2392;52.578;13.426;2024-03-02T05:57:03;70.20;;;36.63;;
4756;SDS011;2392;52.578;13.426;2024-03-02T05:59:51;70.47;;;36.20;;
4756;SDS011;2392;52.578;13.426;2024-03-02T06:02:18;72.77;;;37.90;;
4756;SDS011;2392;52.578;13.426;2024-03-02T06:04:46;72.27;;;36.47;;
4756;SDS011;2392;52.578;13.426;2024-03-02T06:07:13;66.90;;;36.30;;
4756;SDS011;2392;52.578;13.426;2024-03-02T06:09:40;72.03;;;39.33;;
4756;SDS011;2392;52.578;13.426;2024-03-02T06:12:07;72.53;;;38.30;;
4756;SDS011;2392;52.578;13.426;2024-03-02T06:14:34;73.00;;;37.63;;
4756;SDS011;2392;52.578;13.426;2024-03-02T06:17:00;71.63;;;36.30;;
4756;SDS011;2392;52.578;13.426;2024-03-02T06:19:27;86.10;;;38.57;;
4756;SDS011;2392;52.578;13.426;2024-03-02T06:21:55;70.93;;;37.80;;
4756;SDS011;2392;52.578;13.426;2024-03-02T06:24:22;74.60;;;38.30;;
4756;SDS011;2392;52.578;13.426;2024-03-02T06:26:49;79.00;;;39.07;;
4756;SDS011;2392;52.578;13.426;2024-03-02T06:29:15;73.90;;;38.40;;
4756;SDS011;2392;52.578;13.426;2024-03-02T06:31:42;74.47;;;39.10;;
4756;SDS011;2392;52.578;13.426;2024-03-02T06:34:09;73.67;;;37.63;;
4756;SDS011;2392;52.578;13.426;2024-03-02T06:36:35;78.23;;;38.57;;
4756;SDS011;2392;52.578;13.426;2024-03-02T06:39:03;74.70;;;39.40;;
4756;SDS011;2392;52.578;13.426;2024-03-02T06:41:30;71.93;;;37.27;;
4756;SDS011;2392;52.578;13.426;2024-03-02T06:43:57;68.57;;;38.80;;
4756;SDS011;2392;52.578;13.426;2024-03-02T06:46:25;72.30;;;38.57;;
4756;SDS011;2392;52.578;13.426;2024-03-02T06:48:52;78.47;;;37.97;;
4756;SDS011;2392;52.578;13.426;2024-03-02T06:51:18;76.40;;;39.87;;
4756;SDS011;2392;52.578;13.426;2024-03-02T06:53:45;78.03;;;39.60;;
4756;SDS011;2392;52.578;13.426;2024-03-02T06:56:13;69.53;;;37.97;;
4756;SDS011;2392;52.578;13.426;2024-03-02T06:58:39;73.53;;;39.30;;
4756;SDS011;2392;52.578;13.426;2024-03-02T07:01:08;73.63;;;37.30;;
4756;SDS011;2392;52.578;13.426;2024-03-02T07:03:35;71.03;;;35.47;;
4756;SDS011;2392;52.578;13.426;2024-03-02T07:06:01;81.23;;;39.03;;
4756;SDS011;2392;52.578;13.426;2024-03-02T07:08:28;82.40;;;41.10;;
4756;SDS011;2392;52.578;13.426;2024-03-02T07:10:55;80.33;;;40.13;;
4756;SDS011;2392;52.578;13.426;2024-03-02T07:13:23;81.80;;;38.80;;
4756;SDS011;2392;52.578;13.426;2024-03-02T07:15:50;71.30;;;37.77;;
4756;SDS011;2392;52.578;13.426;2024-03-02T07:18:40;82.23;;;38.67;;
4756;SDS011;2392;52.578;13.426;2024-03-02T07:21:10;74.63;;;39.07;;
4756;SDS011;2392;52.578;13.426;2024-03-02T07:23:36;79.53;;;39.30;;
4756;SDS011;2392;52.578;13.426;2024-03-02T07:26:03;67.33;;;37.03;;
4756;SDS011;2392;52.578;13.426;2024-03-02T07:28:32;74.80;;;39.13;;
4756;SDS011;2392;52.578;13.426;2024-03-02T07:30:59;78.97;;;38.93;;
4756;SDS011;2392;52.578;13.426;2024-03-02T07:33:26;70.80;;;36.97;;
4756;SDS011;2392;52.578;13.426;2024-03-02T07:35:53;69.73;;;37.50;;
4756;SDS011;2392;52.578;13.426;2024-03-02T07:38:20;76.10;;;40.73;;
4756;SDS011;2392;52.578;13.426;2024-03-02T07:40:47;70.60;;;36.53;;
4756;SDS011;2392;52.578;13.426;2024-03-02T07:43:15;77.57;;;38.47;;
4756;SDS011;2392;52.578;13.426;2024-03-02T07:45:43;77.10;;;37.93;;
4756;SDS011;2392;52.578;13.426;2024-03-02T07:48:10;66.33;;;34.73;;
4756;SDS011;2392;52.578;13.426;2024-03-02T07:50:37;74.57;;;38.67;;
4756;SDS011;2392;52.578;13.426;2024-03-02T07:53:04;76.57;;;39.70;;
4756;SDS011;2392;52.578;13.426;2024-03-02T07:55:32;77.63;;;38.97;;
4756;SDS011;2392;52.578;13.426;2024-03-02T07:57:59;72.03;;;38.57;;
4756;SDS011;2392;52.578;13.426;2024-03-02T08:00:26;72.87;;;37.97;;
4756;SDS011;2392;52.578;13.426;2024-03-02T08:02:54;81.27;;;41.27;;
4756;SDS011;2392;52.578;13.426;2024-03-02T08:05:22;77.97;;;38.07;;
4756;SDS011;2392;52.578;13.426;2024-03-02T08:07:48;83.27;;;40.53;;
4756;SDS011;2392;52.578;13.426;2024-03-02T08:10:17;74.33;;;39.23;;
4756;SDS011;2392;52.578;13.426;2024-03-02T08:12:44;69.40;;;38.13;;
4756;SDS011;2392;52.578;13.426;2024-03-02T08:15:11;70.90;;;37.00;;
4756;SDS011;2392;52.578;13.426;2024-03-02T08:17:38;76.40;;;39.43;;
4756;SDS011;2392;52.578;13.426;2024-03-02T08:20:11;71.97;;;38.63;;
4756;SDS011;2392;52.578;13.426;2024-03-02T08:22:38;69.90;;;37.77;;
4756;SDS011;2392;52.578;13.426;2024-03-02T08:25:06;73.47;;;39.30;;
4756;SDS011;2392;52.578;13.426;2024-03-02T08:27:33;72.97;;;37.57;;
4756;SDS011;2392;52.578;13.426;2024-03-02T08:30:00;69.23;;;35.13;;
4756;SDS011;2392;52.578;13.426;2024-03-02T08:32:28;69.73;;;36.80;;
4756;SDS011;2392;52.578;13.426;2024-03-02T08:34:55;72.70;;;39.13;;
4756;SDS011;2392;52.578;13.426;2024-03-02T08:37:23;69.83;;;36.10;;
4756;SDS011;2392;52.578;13.426;2024-03-02T08:39:50;69.47;;;35.67;;
4756;SDS011;2392;52.578;13.426;2024-03-02T08:42:16;73.77;;;37.00;;
4756;SDS011;2392;52.578;13.426;2024-03-02T08:44:43;69.87;;;36.50;;
4756;SDS011;2392;52.578;13.426;2024-03-02T08:47:10;71.83;;;35.80;;
4756;SDS011;2392;52.578;13.426;2024-03-02T08:49:37;69.77;;;34.87;;
4756;SDS011;2392;52.578;13.426;2024-03-02T08:52:04;76.30;;;37.53;;
4756;SDS011;2392;52.578;13.426;2024-03-02T08:54:32;66.53;;;36.50;;
4756;SDS011;2392;52.578;13.426;2024-03-02T08:57:00;75.00;;;37.57;;
4756;SDS011;2392;52.578;13.426;2024-03-02T08:59:27;65.83;;;34.00;;
4756;SDS011;2392;52.578;13.426;2024-03-02T09:01:54;70.57;;;37.97;;
4756;SDS011;2392;52.578;13.426;2024-03-02T09:04:20;68.30;;;36.40;;
4756;SDS011;2392;52.578;13.426;2024-03-02T09:06:47;69.10;;;35.73;;
4756;SDS011;2392;52.578;13.426;2024-03-02T09:09:13;72.37;;;34.17;;
4756;SDS011;2392;52.578;13.426;2024-03-02T09:11:41;62.70;;;33.50;;
4756;SDS011;2392;52.578;13.426;2024-03-02T09:14:08;69.80;;;36.60;;
4756;SDS011;2392;52.578;13.426;2024-03-02T09:16:35;70.30;;;33.17;;
4756;SDS011;2392;52.578;13.426;2024-03-02T09:19:02;68.77;;;35.47;;
4756;SDS011;2392;52.578;13.426;2024-03-02T09:21:28;64.13;;;34.50;;
4756;SDS011;2392;52.578;13.426;2024-03-02T09:23:56;65.07;;;33.83;;
4756;SDS011;2392;52.578;13.426;2024-03-02T09:26:22;69.97;;;36.40;;
4756;SDS011;2392;52.578;13.426;2024-03-02T09:28:51;65.63;;;34.73;;
4756;SDS011;2392;52.578;13.426;2024-03-02T09:31:17;71.00;;;35.50;;
4756;SDS011;2392;52.578;13.426;2024-03-02T09:33:44;65.70;;;34.70;;
4756;SDS011;2392;52.578;13.426;2024-03-02T09:36:17;73.23;;;36.33;;
4756;SDS011;2392;52.578;13.426;2024-03-02T09:38:44;65.87;;;35.07;;
4756;SDS011;2392;52.578;13.426;2024-03-02T09:41:11;61.63;;;32.17;;
4756;SDS011;2392;52.578;13.426;2024-03-02T09:43:38;72.40;;;36.90;;
4756;SDS011;2392;52.578;13.426;2024-03-02T09:46:07;74.57;;;38.30;;
4756;SDS011;2392;52.578;13.426;2024-03-02T09:48:35;71.30;;;38.37;;
4756;SDS011;2392;52.578;13.426;2024-03-02T09:51:02;64.00;;;34.83;;
4756;SDS011;2392;52.578;13.426;2024-03-02T09:53:31;69.23;;;35.10;;
4756;SDS011;2392;52.578;13.426;2024-03-02T09:55:58;65.03;;;34.23;;
4756;SDS011;2392;52.578;13.426;2024-03-02T09:58:25;67.70;;;35.80;;
4756;SDS011;2392;52.578;13.426;2024-03-02T10:00:52;70.27;;;35.10;;
4756;SDS011;2392;52.578;13.426;2024-03-02T10:03:20;72.63;;;35.93;;
4756;SDS011;2392;52.578;13.426;2024-03-02T10:05:48;64.43;;;33.20;;
4756;SDS011;2392;52.578;13.426;2024-03-02T10:08:15;65.03;;;32.80;;
4756;SDS011;2392;52.578;13.426;2024-03-02T10:10:41;60.23;;;33.50;;
4756;SDS011;2392;52.578;13.426;2024-03-02T10:13:09;61.97;;;32.10;;
4756;SDS011;2392;52.578;13.426;2024-03-02T10:15:37;65.00;;;32.93;;
4756;SDS011;2392;52.578;13.426;2024-03-02T10:18:06;59.77;;;32.47;;
4756;SDS011;2392;52.578;13.426;2024-03-02T10:20:36;62.77;;;31.97;;
4756;SDS011;2392;52.578;13.426;2024-03-02T10:23:10;67.43;;;31.93;;
4756;SDS011;2392;52.578;13.426;2024-03-02T10:25:37;60.97;;;31.20;;
4756;SDS011;2392;52.578;13.426;2024-03-02T10:28:04;54.60;;;29.73;;
4756;SDS011;2392;52.578;13.426;2024-03-02T10:30:31;55.27;;;27.97;;
4756;SDS011;2392;52.578;13.426;2024-03-02T10:32:59;56.50;;;30.13;;
4756;SDS011;2392;52.578;13.426;2024-03-02T10:35:26;53.30;;;29.47;;
4756;SDS011;2392;52.578;13.426;2024-03-02T10:37:54;55.40;;;29.57;;
4756;SDS011;2392;52.578;13.426;2024-03-02T10:40:21;53.60;;;27.77;;
4756;SDS011;2392;52.578;13.426;2024-03-02T10:42:49;50.70;;;26.60;;
4756;SDS011;2392;52.578;13.426;2024-03-02T10:45:16;56.77;;;27.17;;
4756;SDS011;2392;52.578;13.426;2024-03-02T10:47:45;54.87;;;28.17;;
4756;SDS011;2392;52.578;13.426;2024-03-02T10:50:13;48.00;;;24.87;;
4756;SDS011;2392;52.578;13.426;2024-03-02T10:52:40;53.77;;;27.10;;
4756;SDS011;2392;52.578;13.426;2024-03-02T10:55:09;50.73;;;26.10;;
4756;SDS011;2392;52.578;13.426;2024-03-02T10:57:40;50.80;;;25.67;;
4756;SDS011;2392;52.578;13.426;2024-03-02T11:00:11;52.67;;;24.33;;
4756;SDS011;2392;52.578;13.426;2024-03-02T11:02:42;52.73;;;24.63;;
4756;SDS011;2392;52.578;13.426;2024-03-02T11:05:11;49.87;;;25.20;;
4756;SDS011;2392;52.578;13.426;2024-03-02T11:07:45;50.70;;;25.07;;
4756;SDS011;2392;52.578;13.426;2024-03-02T11:10:13;48.40;;;22.23;;
4756;SDS011;2392;52.578;13.426;2024-03-02T11:12:43;47.43;;;23.83;;
4756;SDS011;2392;52.578;13.426;2024-03-02T11:15:19;45.30;;;23.20;;
4756;SDS011;2392;52.578;13.426;2024-03-02T11:17:46;45.83;;;20.83;;
4756;SDS011;2392;52.578;13.426;2024-03-02T11:20:14;50.03;;;21.97;;
4756;SDS011;2392;52.578;13.426;2024-03-02T11:22:44;48.13;;;21.60;;
4756;SDS011;2392;52.578;13.426;2024-03-02T11:25:24;44.70;;;21.77;;
4756;SDS011;2392;52.578;13.426;2024-03-02T11:28:01;41.23;;;19.20;;
4756;SDS011;2392;52.578;13.426;2024-03-02T11:33:24;40.03;;;18.47;;
4756;SDS011;2392;52.578;13.426;2024-03-02T11:35:55;40.97;;;19.90;;
4756;SDS011;2392;52.578;13.426;2024-03-02T11:38:27;44.30;;;20.00;;
4756;SDS011;2392;52.578;13.426;2024-03-02T11:41:00;41.27;;;18.97;;
4756;SDS011;2392;52.578;13.426;2024-03-02T11:43:28;41.33;;;19.77;;
4756;SDS011;2392;52.578;13.426;2024-03-02T11:45:58;43.60;;;18.90;;
4756;SDS011;2392;52.578;13.426;2024-03-02T11:48:26;42.70;;;18.80;;
4756;SDS011;2392;52.578;13.426;2024-03-02T11:50:52;42.70;;;19.30;;
4756;SDS011;2392;52.578;13.426;2024-03-02T11:53:20;45.30;;;20.37;;
4756;SDS011;2392;52.578;13.426;2024-03-02T11:55:47;42.87;;;19.90;;
4756;SDS011;2392;52.578;13.426;2024-03-02T11:58:16;40.27;;;20.47;;
4756;SDS011;2392;52.578;13.426;2024-03-02T12:00:45;42.67;;;20.73;;
4756;SDS011;2392;52.578;13.426;2024-03-02T12:03:12;44.13;;;21.00;;
4756;SDS011;2392;52.578;13.426;2024-03-02T12:05:40;42.63;;;21.40;;
4756;SDS011;2392;52.578;13.426;2024-03-02T12:08:08;44.83;;;20.43;;
4756;SDS011;2392;52.578;13.426;2024-03-02T12:10:35;48.50;;;20.33;;
4756;SDS011;2392;52.578;13.426;2024-03-02T12:13:03;42.17;;;20.47;;
4756;SDS011;2392;52.578;13.426;2024-03-02T12:15:33;44.03;;;20.17;;
4756;SDS011;2392;52.578;13.426;2024-03-02T12:18:02;44.67;;;21.90;;
4756;SDS011;2392;52.578;13.426;2024-03-02T12:20:29;41.13;;;19.80;;
4756;SDS011;2392;52.578;13.426;2024-03-02T12:22:59;47.87;;;20.83;;
4756;SDS011;2392;52.578;13.426;2024-03-02T12:25:26;40.87;;;19.10;;
4756;SDS011;2392;52.578;13.426;2024-03-02T12:27:54;42.10;;;19.70;;
4756;SDS011;2392;52.578;13.426;2024-03-02T12:30:22;40.07;;;18.93;;
4756;SDS011;2392;52.578;13.426;2024-03-02T12:32:50;41.57;;;18.70;;
4756;SDS011;2392;52.578;13.426;2024-03-02T12:35:17;42.13;;;19.17;;
4756;SDS011;2392;52.578;13.426;2024-03-02T12:37:44;40.90;;;18.47;;
4756;SDS011;2392;52.578;13.426;2024-03-02T12:40:12;41.70;;;19.83;;
4756;SDS011;2392;52.578;13.426;2024-03-02T12:42:40;39.63;;;18.50;;
4756;SDS011;2392;52.578;13.426;2024-03-02T12:45:07;41.53;;;20.37;;
4756;SDS011;2392;52.578;13.426;2024-03-02T12:47:35;41.37;;;18.43;;
4756;SDS011;2392;52.578;13.426;2024-03-02T12:50:04;35.93;;;16.43;;
4756;SDS011;2392;52.578;13.426;2024-03-02T12:52:31;36.57;;;17.10;;
4756;SDS011;2392;52.578;13.426;2024-03-02T12:54:59;35.43;;;16.63;;
4756;SDS011;2392;52.578;13.426;2024-03-02T12:57:28;36.97;;;17.00;;
4756;SDS011;2392;52.578;13.426;2024-03-02T12:59:57;35.27;;;17.00;;
4756;SDS011;2392;52.578;13.426;2024-03-02T13:02:27;37.20;;;16.80;;
4756;SDS011;2392;52.578;13.426;2024-03-02T13:04:54;40.60;;;16.87;;
4756;SDS011;2392;52.578;13.426;2024-03-02T13:07:23;34.93;;;16.30;;
4756;SDS011;2392;52.578;13.426;2024-03-02T13:09:50;38.67;;;15.67;;
4756;SDS011;2392;52.578;13.426;2024-03-02T13:12:17;40.00;;;17.37;;
4756;SDS011;2392;52.578;13.426;2024-03-02T13:14:43;34.67;;;15.07;;
4756;SDS011;2392;52.578;13.426;2024-03-02T13:17:10;33.93;;;14.43;;
4756;SDS011;2392;52.578;13.426;2024-03-02T13:19:43;37.70;;;16.93;;
4756;SDS011;2392;52.578;13.426;2024-03-02T13:22:16;36.03;;;16.07;;
4756;SDS011;2392;52.578;13.426;2024-03-02T13:24:44;33.67;;;15.00;;
4756;SDS011;2392;52.578;13.426;2024-03-02T13:27:11;33.77;;;14.43;;
4756;SDS011;2392;52.578;13.426;2024-03-02T13:29:38;34.67;;;16.03;;
4756;SDS011;2392;52.578;13.426;2024-03-02T13:32:04;32.90;;;15.23;;
4756;SDS011;2392;52.578;13.426;2024-03-02T13:34:31;32.90;;;14.90;;
4756;SDS011;2392;52.578;13.426;2024-03-02T13:36:58;34.30;;;15.73;;
4756;SDS011;2392;52.578;13.426;2024-03-02T13:39:26;33.60;;;15.20;;
4756;SDS011;2392;52.578;13.426;2024-03-02T13:41:57;34.40;;;15.00;;
4756;SDS011;2392;52.578;13.426;2024-03-02T13:44:29;35.80;;;15.97;;
4756;SDS011;2392;52.578;13.426;2024-03-02T13:46:56;32.37;;;13.93;;
4756;SDS011;2392;52.578;13.426;2024-03-02T13:49:23;33.07;;;13.93;;
4756;SDS011;2392;52.578;13.426;2024-03-02T13:51:53;32.83;;;14.20;;
4756;SDS011;2392;52.578;13.426;2024-03-02T13:54:21;32.57;;;13.77;;
4756;SDS011;2392;52.578;13.426;2024-03-02T13:56:48;31.20;;;13.53;;
4756;SDS011;2392;52.578;13.426;2024-03-02T13:59:16;36.43;;;15.80;;
4756;SDS011;2392;52.578;13.426;2024-03-02T14:01:43;34.37;;;14.47;;
4756;SDS011;2392;52.578;13.426;2024-03-02T14:04:10;36.20;;;15.97;;
4756;SDS011;2392;52.578;13.426;2024-03-02T14:06:37;35.10;;;15.70;;
4756;SDS011;2392;52.578;13.426;2024-03-02T14:09:04;34.10;;;14.93;;
4756;SDS011;2392;52.578;13.426;2024-03-02T14:11:31;32.70;;;14.40;;
4756;SDS011;2392;52.578;13.426;2024-03-02T14:13:57;34.60;;;13.90;;
4756;SDS011;2392;52.578;13.426;2024-03-02T14:16:25;32.10;;;12.80;;
4756;SDS011;2392;52.578;13.426;2024-03-02T14:18:52;33.60;;;14.10;;
4756;SDS011;2392;52.578;13.426;2024-03-02T14:21:18;36.03;;;15.40;;
4756;SDS011;2392;52.578;13.426;2024-03-02T14:23:45;33.17;;;14.17;;
4756;SDS011;2392;52.578;13.426;2024-03-02T14:26:12;37.57;;;15.80;;
4756;SDS011;2392;52.578;13.426;2024-03-02T14:28:38;33.10;;;14.27;;
4756;SDS011;2392;52.578;13.426;2024-03-02T14:31:05;33.33;;;14.30;;
4756;SDS011;2392;52.578;13.426;2024-03-02T14:33:33;34.27;;;14.37;;
4756;SDS011;2392;52.578;13.426;2024-03-02T14:36:00;32.93;;;14.00;;
4756;SDS011;2392;52.578;13.426;2024-03-02T14:38:27;34.03;;;13.40;;